createdAt,value
2022-10-20T00:08:41.056Z,99.90
2022-10-20T00:11:10.563Z,99.90
2022-10-20T00:13:38.762Z,99.90
2022-10-20T00:16:07.416Z,99.90
2022-10-20T00:21:08.351Z,1.00
2022-10-20T00:23:36.650Z,1.00
2022-10-20T00:26:10.775Z,99.90
2022-10-20T00:36:07.421Z,1.00
2022-10-20T00:43:54.623Z,1.00
2022-10-20T00:46:32.367Z,1.00
2022-10-20T00:49:13.963Z,99.90
2022-10-20T00:54:17.030Z,1.00
2022-10-20T00:56:47.237Z,1.00
2022-10-20T00:59:18.914Z,13.80
2022-10-20T01:11:59.442Z,99.90
2022-10-20T01:14:46.422Z,99.90
2022-10-20T01:20:05.041Z,1.00
2022-10-20T01:22:56.313Z,99.90
2022-10-20T01:25:53.522Z,99.90
2022-10-20T01:28:27.383Z,99.90
2022-10-20T01:30:59.842Z,99.90
2022-10-20T01:33:44.456Z,99.90
2022-10-20T01:36:22.553Z,99.90
2022-10-20T01:38:59.780Z,99.90
2022-10-20T01:41:34.342Z,99.90
2022-10-20T01:44:09.710Z,99.90
2022-10-20T01:46:39.539Z,99.90
2022-10-20T01:49:08.214Z,99.90
2022-10-20T01:57:05.442Z,1.00
2022-10-20T01:59:56.617Z,1.00
2022-10-20T02:05:13.441Z,1.00
2022-10-20T02:07:42.985Z,1.00
2022-10-20T02:10:19.043Z,1.00
2022-10-20T02:12:52.746Z,1.00
2022-10-20T02:15:24.856Z,1.00
2022-10-20T02:17:57.527Z,1.00
2022-10-20T02:25:22.126Z,1.00
2022-10-20T02:30:21.385Z,1.00
2022-10-20T02:32:52.727Z,1.00
2022-10-20T02:35:27.069Z,1.00
2022-10-20T03:00:06.709Z,1.00
2022-10-20T04:51:07.414Z,93.50
2022-10-20T05:01:02.376Z,74.10
2022-10-20T05:06:12.663Z,89.10
2022-10-20T05:23:39.222Z,99.90
2022-10-20T05:26:15.259Z,99.90
2022-10-20T05:28:47.761Z,99.90
2022-10-20T05:31:17.130Z,99.90
2022-10-20T05:33:50.337Z,99.90
2022-10-20T05:44:09.108Z,89.10
2022-10-20T05:46:41.650Z,73.00
2022-10-20T05:49:17.606Z,86.20
2022-10-20T05:51:46.733Z,96.00
2022-10-20T05:59:13.156Z,91.30
2022-10-20T06:01:59.595Z,91.30
2022-10-20T06:06:56.702Z,99.90
2022-10-20T06:24:19.201Z,99.90
2022-10-20T06:29:16.825Z,99.90
2022-10-20T06:31:48.665Z,99.90
2022-10-20T06:34:21.028Z,99.90
2022-10-20T06:39:22.445Z,99.90
2022-10-20T07:04:16.998Z,99.90
2022-10-20T07:06:45.617Z,99.90
2022-10-20T07:09:18.935Z,99.90
2022-10-20T07:24:13.823Z,99.90
2022-10-20T07:26:41.955Z,99.90
2022-10-20T07:29:13.886Z,99.90
2022-10-20T07:31:44.991Z,99.90
2022-10-20T07:34:25.241Z,99.90
2022-10-20T08:22:00.579Z,99.90
2022-10-20T08:44:36.328Z,1.00
2022-10-20T08:47:06.094Z,1.00
2022-10-20T08:49:35.180Z,1.00
2022-10-20T08:54:34.634Z,1.00
2022-10-20T08:59:35.525Z,1.00
2022-10-20T09:02:14.646Z,1.00
2022-10-20T09:04:52.821Z,1.00
2022-10-20T09:07:25.218Z,1.00
2022-10-20T09:12:21.760Z,1.00
2022-10-20T09:17:18.597Z,1.00
2022-10-20T09:19:55.077Z,1.00
2022-10-20T09:24:55.293Z,1.00
2022-10-20T09:27:29.858Z,1.00
2022-10-20T09:32:56.321Z,1.00
2022-10-20T09:35:25.879Z,1.00
2022-10-20T09:40:22.813Z,99.90
2022-10-20T09:43:14.829Z,1.00
2022-10-20T09:45:58.918Z,1.00
2022-10-20T09:48:29.425Z,1.00
2022-10-20T09:50:58.857Z,1.00
2022-10-20T09:53:32.069Z,1.00
2022-10-20T09:58:29.140Z,99.90
2022-10-20T10:00:59.215Z,99.90
2022-10-20T10:03:27.056Z,99.90
2022-10-20T10:05:59.459Z,99.90
2022-10-20T10:08:40.720Z,99.90
2022-10-20T10:11:20.238Z,99.90
2022-10-20T10:13:50.196Z,99.90
2022-10-20T10:16:20.799Z,99.90
2022-10-20T10:19:01.850Z,99.90
2022-10-20T10:21:30.968Z,99.90
2022-10-20T10:24:03.592Z,99.90
2022-10-20T10:26:46.075Z,99.90
2022-10-20T10:29:36.520Z,99.90
2022-10-20T10:32:19.451Z,99.90
2022-10-20T10:35:21.602Z,99.90
2022-10-20T10:37:49.215Z,99.90
2022-10-20T10:40:24.360Z,1.00
2022-10-20T10:45:24.666Z,99.90
2022-10-20T10:48:00.580Z,99.90
2022-10-20T10:50:52.646Z,99.90
2022-10-20T10:54:11.615Z,99.90
2022-10-20T10:56:49.727Z,99.90
2022-10-20T10:59:35.203Z,99.90
2022-10-20T11:02:30.667Z,99.90
2022-10-20T11:07:59.198Z,1.00
2022-10-20T11:11:04.252Z,1.00
2022-10-20T11:13:43.036Z,1.00
2022-10-20T11:16:22.361Z,1.00
2022-10-20T11:19:27.149Z,1.00
2022-10-20T11:22:11.888Z,1.00
2022-10-20T11:24:48.079Z,1.00
2022-10-20T11:27:26.438Z,1.00
2022-10-20T11:30:05.648Z,1.00
2022-10-20T11:32:50.420Z,1.00
2022-10-20T11:35:35.886Z,1.00
2022-10-20T11:38:25.423Z,1.00
2022-10-20T11:41:00.406Z,1.00
2022-10-20T11:43:35.456Z,1.00
2022-10-20T11:46:09.266Z,1.00
2022-10-20T11:48:45.230Z,1.00
2022-10-20T11:51:17.833Z,1.00
2022-10-20T11:53:50.652Z,1.00
2022-10-20T11:56:29.568Z,1.00
2022-10-20T11:59:26.185Z,1.00
2022-10-20T12:02:30.909Z,1.00
2022-10-20T12:05:16.068Z,1.00
2022-10-20T12:08:29.622Z,1.00
2022-10-20T12:11:31.681Z,1.00
2022-10-20T12:14:16.988Z,1.00
2022-10-20T12:16:58.427Z,1.00
2022-10-20T12:19:36.284Z,1.00
2022-10-20T12:22:18.676Z,1.00
2022-10-20T12:24:55.066Z,1.00
2022-10-20T12:30:18.900Z,1.00
2022-10-20T12:32:57.584Z,1.00
2022-10-20T12:35:24.897Z,1.00
2022-10-20T12:38:04.362Z,1.00
2022-10-20T12:40:34.835Z,1.00
2022-10-20T12:43:02.124Z,1.00
2022-10-20T12:45:41.859Z,1.00
2022-10-20T12:48:19.248Z,1.00
2022-10-20T12:50:50.531Z,1.00
2022-10-20T12:53:18.027Z,1.00
2022-10-20T12:55:56.118Z,1.00
2022-10-20T12:58:23.610Z,1.00
2022-10-20T13:00:51.138Z,1.00
2022-10-20T13:03:47.838Z,1.00
2022-10-20T13:06:30.230Z,1.00
2022-10-20T13:09:07.758Z,1.00
2022-10-20T13:11:39.190Z,1.00
2022-10-20T13:14:12.988Z,1.00
2022-10-20T13:16:49.862Z,1.00
2022-10-20T13:19:23.977Z,1.00
2022-10-20T13:24:31.336Z,1.00
2022-10-20T13:27:05.717Z,1.00
2022-10-20T13:29:37.392Z,1.00
2022-10-20T13:32:24.480Z,1.00
2022-10-20T13:34:58.985Z,1.00
2022-10-20T13:37:38.226Z,1.00
2022-10-20T13:40:25.786Z,1.00
2022-10-20T13:43:02.411Z,1.00
2022-10-20T13:46:00.820Z,1.00
2022-10-20T13:48:50.106Z,1.00
2022-10-20T13:51:27.996Z,1.00
2022-10-20T13:53:58.866Z,1.00
2022-10-20T13:56:37.820Z,1.00
2022-10-20T13:59:29.680Z,1.00
2022-10-20T14:02:00.491Z,1.00
2022-10-20T14:04:31.023Z,1.00
2022-10-20T14:07:13.433Z,1.00
2022-10-20T14:09:45.380Z,1.00
2022-10-20T14:12:26.789Z,1.00
2022-10-20T14:15:01.688Z,1.00
2022-10-20T14:17:29.845Z,1.00
2022-10-20T14:20:20.623Z,1.00
2022-10-20T14:22:48.727Z,1.00
2022-10-20T14:25:16.983Z,1.00
2022-10-20T14:30:16.808Z,1.00
2022-10-20T14:32:45.884Z,1.00
2022-10-20T14:35:19.033Z,1.00
2022-10-20T14:38:03.457Z,1.00
2022-10-20T14:40:37.006Z,1.00
2022-10-20T14:43:16.347Z,1.00
2022-10-20T14:46:01.876Z,1.00
2022-10-20T14:48:44.027Z,1.00
2022-10-20T14:51:36.341Z,1.00
2022-10-20T14:54:25.285Z,1.00
2022-10-20T14:57:02.142Z,14.00
2022-10-20T14:59:32.418Z,1.00
2022-10-20T15:02:17.074Z,1.00
2022-10-20T15:04:45.728Z,1.00
2022-10-20T15:07:26.621Z,1.00
2022-10-20T15:10:05.129Z,1.00
2022-10-20T15:12:34.198Z,1.00
2022-10-20T15:15:20.609Z,1.00
2022-10-20T15:17:51.315Z,1.00
2022-10-20T15:20:40.540Z,1.00
2022-10-20T15:23:22.651Z,1.00
2022-10-20T15:28:37.051Z,1.00
2022-10-20T15:31:21.506Z,1.00
2022-10-20T15:36:20.964Z,1.00
2022-10-20T15:38:49.915Z,1.00
2022-10-20T15:41:20.587Z,1.00
2022-10-20T15:51:28.314Z,99.90
2022-10-20T15:53:56.824Z,1.00
2022-10-20T16:01:21.872Z,1.00
2022-10-20T16:06:18.912Z,1.00
2022-10-20T16:08:48.330Z,1.00
2022-10-20T16:11:17.682Z,1.00
2022-10-20T16:16:15.641Z,1.00
2022-10-20T16:26:13.322Z,11.20
2022-10-20T16:31:12.406Z,5.20
2022-10-20T16:36:10.545Z,76.60
2022-10-20T16:41:14.336Z,56.80
2022-10-20T16:43:44.727Z,72.40
2022-10-20T16:46:13.665Z,34.00
2022-10-20T17:01:17.437Z,99.90
2022-10-20T17:03:47.088Z,87.50
2022-10-20T17:06:16.900Z,99.90
2022-10-20T17:11:16.224Z,82.20
2022-10-20T17:16:15.101Z,99.90
2022-10-20T17:18:43.144Z,99.90
2022-10-20T17:21:11.470Z,99.90
2022-10-20T17:23:42.757Z,99.90
2022-10-20T17:26:19.946Z,99.90
2022-10-20T17:31:18.634Z,99.90
2022-10-20T17:41:14.237Z,99.90
2022-10-20T17:46:15.393Z,99.90
2022-10-20T17:51:23.311Z,99.90
2022-10-20T17:53:53.385Z,99.90
2022-10-20T17:56:24.270Z,99.90
2022-10-20T18:01:30.695Z,99.90
2022-10-20T18:04:04.884Z,99.90
2022-10-20T18:06:34.729Z,99.90
2022-10-20T18:09:06.618Z,99.90
2022-10-20T18:11:35.698Z,99.90
2022-10-20T18:14:04.822Z,99.90
2022-10-20T18:16:34.372Z,99.90
2022-10-20T18:21:32.282Z,99.90
2022-10-20T18:24:02.984Z,99.90
2022-10-20T18:26:32.447Z,99.90
2022-10-20T18:31:32.589Z,99.90
2022-10-20T18:34:08.201Z,1.00
2022-10-20T18:36:40.508Z,99.90
2022-10-20T18:41:43.263Z,99.90
2022-10-20T18:44:16.804Z,99.90
2022-10-20T18:46:46.293Z,99.90
2022-10-20T18:49:16.889Z,99.90
2022-10-20T18:51:47.423Z,99.90
2022-10-20T18:54:16.984Z,99.90
2022-10-20T19:06:47.294Z,99.90
2022-10-20T19:09:21.824Z,1.00
2022-10-20T19:32:02.298Z,99.90
2022-10-20T19:34:39.405Z,99.90
2022-10-20T19:39:40.059Z,1.00
2022-10-20T19:42:09.344Z,99.90
2022-10-20T19:52:04.215Z,99.90
2022-10-20T20:09:30.256Z,1.00
2022-10-20T20:29:16.943Z,1.00
2022-10-20T20:39:14.729Z,1.00
2022-10-20T20:54:03.862Z,99.90
2022-10-20T21:01:31.365Z,99.90
2022-10-20T21:04:03.561Z,99.90
2022-10-20T21:06:49.550Z,99.90
2022-10-20T21:21:44.582Z,99.90
2022-10-20T21:34:05.837Z,1.00
2022-10-20T21:36:35.457Z,1.00
2022-10-20T21:39:05.940Z,1.00
2022-10-20T21:41:35.929Z,1.00
2022-10-20T21:44:05.404Z,1.00
2022-10-20T21:46:39.253Z,1.00
2022-10-20T21:49:10.044Z,1.00
2022-10-20T21:51:39.864Z,1.00
2022-10-20T21:54:12.445Z,1.00
2022-10-20T21:56:41.582Z,1.00
2022-10-20T21:59:18.867Z,1.00
2022-10-20T22:01:47.773Z,1.00
2022-10-20T22:04:16.536Z,1.00
2022-10-20T22:09:13.254Z,1.00
2022-10-20T22:11:49.027Z,1.00
2022-10-20T22:19:18.421Z,1.00
2022-10-20T22:21:48.509Z,1.00
2022-10-20T22:26:45.843Z,1.00
2022-10-20T22:34:10.142Z,1.00
2022-10-20T22:39:06.689Z,1.00
2022-10-20T22:56:22.355Z,18.30
2022-10-20T22:58:52.504Z,23.10
2022-10-20T23:01:22.620Z,23.90
2022-10-20T23:06:21.073Z,32.50
2022-10-20T23:08:51.579Z,42.50
2022-10-20T23:21:12.973Z,57.30
2022-10-20T23:28:37.801Z,44.90
2022-10-20T23:31:14.044Z,58.30
2022-10-20T23:33:42.633Z,37.70
2022-10-20T23:53:25.419Z,99.90
